sensor_id;sensor_type;location;lat;lon;timestamp;pressure;altitude;pressure_sealevel;temperature;humidity
10946;BME280;5525;42.648;23.368;2022-07-15T00:01:39;94706.28;;;16.64;89.63
10946;BME280;5525;42.648;23.368;2022-07-15T00:04:06;94683.53;;;16.19;92.31
10946;BME280;5525;42.648;23.368;2022-07-15T00:06:35;94724.88;;;16.59;91.90
10946;BME280;5525;42.648;23.368;2022-07-15T00:09:02;94727.59;;;16.59;92.31
10946;BME280;5525;42.648;23.368;2022-07-15T00:11:29;94711.44;;;16.50;91.27
10946;BME280;5525;42.648;23.368;2022-07-15T00:13:58;94728.66;;;16.54;93.04
10946;BME280;5525;42.648;23.368;2022-07-15T00:16:25;94730.03;;;16.45;94.24
10946;BME280;5525;42.648;23.368;2022-07-15T00:18:51;94730.38;;;16.62;94.44
10946;BME280;5525;42.648;23.368;2022-07-15T00:21:19;94706.91;;;16.39;94.48
10946;BME280;5525;42.648;23.368;2022-07-15T00:23:46;94728.78;;;16.42;93.13
10946;BME280;5525;42.648;23.368;2022-07-15T00:26:12;94732.28;;;16.43;94.10
10946;BME280;5525;42.648;23.368;2022-07-15T00:28:39;94734.69;;;16.44;93.60
10946;BME280;5525;42.648;23.368;2022-07-15T00:31:08;94705.25;;;16.15;93.92
10946;BME280;5525;42.648;23.368;2022-07-15T00:33:35;94738.38;;;16.36;95.35
10946;BME280;5525;42.648;23.368;2022-07-15T00:36:03;94739.22;;;16.21;95.87
10946;BME280;5525;42.648;23.368;2022-07-15T00:38:29;94743.22;;;16.08;96.24
10946;BME280;5525;42.648;23.368;2022-07-15T00:40:56;94741.16;;;16.02;98.00
10946;BME280;5525;42.648;23.368;2022-07-15T00:43:23;94736.78;;;15.97;99.00
10946;BME280;5525;42.648;23.368;2022-07-15T00:45:50;94690.22;;;15.52;100.00
10946;BME280;5525;42.648;23.368;2022-07-15T00:48:19;94732.75;;;15.91;100.00
10946;BME280;5525;42.648;23.368;2022-07-15T00:50:47;94720.69;;;15.92;100.00
10946;BME280;5525;42.648;23.368;2022-07-15T00:53:17;94725.72;;;15.90;100.00
10946;BME280;5525;42.648;23.368;2022-07-15T00:55:45;94721.66;;;16.00;100.00
10946;BME280;5525;42.648;23.368;2022-07-15T00:58:15;94715.69;;;15.94;100.00
10946;BME280;5525;42.648;23.368;2022-07-15T01:00:43;94717.38;;;15.83;100.00
10946;BME280;5525;42.648;23.368;2022-07-15T01:03:10;94715.59;;;15.91;100.00
10946;BME280;5525;42.648;23.368;2022-07-15T01:05:39;94711.81;;;15.95;100.00
10946;BME280;5525;42.648;23.368;2022-07-15T01:08:05;94665.13;;;15.78;100.00
10946;BME280;5525;42.648;23.368;2022-07-15T01:10:34;94674.19;;;15.82;100.00
10946;BME280;5525;42.648;23.368;2022-07-15T01:13:02;94713.19;;;16.24;100.00
10946;BME280;5525;42.648;23.368;2022-07-15T01:15:29;94704.09;;;16.16;100.00
10946;BME280;5525;42.648;23.368;2022-07-15T01:17:59;94696.44;;;16.22;100.00
10946;BME280;5525;42.648;23.368;2022-07-15T01:20:26;94688.53;;;15.98;100.00
10946;BME280;5525;42.648;23.368;2022-07-15T01:22:54;94687.44;;;15.83;100.00
10946;BME280;5525;42.648;23.368;2022-07-15T01:25:22;94694.13;;;15.70;100.00
10946;BME280;5525;42.648;23.368;2022-07-15T01:27:49;94694.75;;;15.64;100.00
10946;BME280;5525;42.648;23.368;2022-07-15T01:30:16;94699.44;;;15.63;100.00
10946;BME280;5525;42.648;23.368;2022-07-15T01:32:43;94686.28;;;15.50;100.00
10946;BME280;5525;42.648;23.368;2022-07-15T01:35:10;94695.66;;;15.52;100.00
10946;BME280;5525;42.648;23.368;2022-07-15T01:37:37;94687.41;;;15.49;100.00
10946;BME280;5525;42.648;23.368;2022-07-15T01:40:06;94679.59;;;15.47;100.00
10946;BME280;5525;42.648;23.368;2022-07-15T01:42:34;94693.53;;;15.61;100.00
10946;BME280;5525;42.648;23.368;2022-07-15T01:45:01;94694.44;;;15.65;100.00
10946;BME280;5525;42.648;23.368;2022-07-15T01:47:27;94686.19;;;15.62;100.00
10946;BME280;5525;42.648;23.368;2022-07-15T01:49:54;94697.69;;;15.55;100.00
10946;BME280;5525;42.648;23.368;2022-07-15T01:52:20;94687.16;;;15.38;100.00
10946;BME280;5525;42.648;23.368;2022-07-15T01:54:48;94702.19;;;15.48;100.00
10946;BME280;5525;42.648;23.368;2022-07-15T01:57:16;94683.13;;;15.16;100.00
10946;BME280;5525;42.648;23.368;2022-07-15T01:59:43;94702.34;;;15.23;100.00
10946;BME280;5525;42.648;23.368;2022-07-15T02:02:10;94693.66;;;15.02;100.00
10946;BME280;5525;42.648;23.368;2022-07-15T02:04:37;94663.75;;;14.71;100.00
10946;BME280;5525;42.648;23.368;2022-07-15T02:07:04;94691.00;;;14.90;100.00
10946;BME280;5525;42.648;23.368;2022-07-15T02:09:32;94693.47;;;14.95;100.00
10946;BME280;5525;42.648;23.368;2022-07-15T02:11:59;94645.31;;;14.65;100.00
10946;BME280;5525;42.648;23.368;2022-07-15T02:14:28;94674.44;;;14.95;100.00
10946;BME280;5525;42.648;23.368;2022-07-15T02:16:55;94675.66;;;14.98;100.00
10946;BME280;5525;42.648;23.368;2022-07-15T02:19:22;94669.47;;;14.97;100.00
10946;BME280;5525;42.648;23.368;2022-07-15T02:21:49;94716.47;;;15.29;100.00
10946;BME280;5525;42.648;23.368;2022-07-15T02:24:15;94681.44;;;14.81;100.00
10946;BME280;5525;42.648;23.368;2022-07-15T02:26:45;94711.81;;;15.14;100.00
10946;BME280;5525;42.648;23.368;2022-07-15T02:29:12;94715.59;;;15.25;100.00
10946;BME280;5525;42.648;23.368;2022-07-15T02:31:41;94695.25;;;15.19;100.00
10946;BME280;5525;42.648;23.368;2022-07-15T02:34:09;94692.94;;;15.21;100.00
10946;BME280;5525;42.648;23.368;2022-07-15T02:36:35;94710.94;;;15.25;100.00
10946;BME280;5525;42.648;23.368;2022-07-15T02:39:03;94712.34;;;15.19;100.00
10946;BME280;5525;42.648;23.368;2022-07-15T02:41:30;94697.16;;;15.18;100.00
10946;BME280;5525;42.648;23.368;2022-07-15T02:43:57;94656.81;;;14.89;100.00
10946;BME280;5525;42.648;23.368;2022-07-15T02:46:25;94654.53;;;14.91;100.00
10946;BME280;5525;42.648;23.368;2022-07-15T02:48:54;94697.16;;;15.18;100.00
10946;BME280;5525;42.648;23.368;2022-07-15T02:51:21;94668.13;;;14.91;100.00
10946;BME280;5525;42.648;23.368;2022-07-15T02:53:48;94705.06;;;15.23;100.00
10946;BME280;5525;42.648;23.368;2022-07-15T02:56:15;94707.25;;;15.18;100.00
10946;BME280;5525;42.648;23.368;2022-07-15T02:58:41;94705.69;;;15.17;100.00
10946;BME280;5525;42.648;23.368;2022-07-15T03:01:08;94646.81;;;14.93;100.00
10946;BME280;5525;42.648;23.368;2022-07-15T03:03:36;94701.47;;;15.19;100.00
10946;BME280;5525;42.648;23.368;2022-07-15T03:06:04;94695.66;;;15.21;100.00
10946;BME280;5525;42.648;23.368;2022-07-15T03:08:31;94646.44;;;14.79;100.00
10946;BME280;5525;42.648;23.368;2022-07-15T03:10:58;94687.69;;;15.12;100.00
10946;BME280;5525;42.648;23.368;2022-07-15T03:13:25;94693.75;;;15.21;100.00
10946;BME280;5525;42.648;23.368;2022-07-15T03:15:52;94696.22;;;15.27;100.00
10946;BME280;5525;42.648;23.368;2022-07-15T03:18:19;94698.06;;;15.38;100.00
10946;BME280;5525;42.648;23.368;2022-07-15T03:20:46;94701.81;;;15.49;100.00
10946;BME280;5525;42.648;23.368;2022-07-15T03:23:15;94693.75;;;15.53;100.00
10946;BME280;5525;42.648;23.368;2022-07-15T03:25:42;94691.63;;;15.62;100.00
10946;BME280;5525;42.648;23.368;2022-07-15T03:28:09;94642.91;;;15.25;100.00
10946;BME280;5525;42.648;23.368;2022-07-15T03:30:37;94676.84;;;15.63;100.00
10946;BME280;5525;42.648;23.368;2022-07-15T03:33:03;94688.63;;;15.67;100.00
10946;BME280;5525;42.648;23.368;2022-07-15T03:35:30;94687.84;;;15.66;100.00
10946;BME280;5525;42.648;23.368;2022-07-15T03:37:57;94693.78;;;15.72;100.00
10946;BME280;5525;42.648;23.368;2022-07-15T03:40:26;94698.97;;;15.77;100.00
10946;BME280;5525;42.648;23.368;2022-07-15T03:42:53;94690.53;;;15.82;100.00
10946;BME280;5525;42.648;23.368;2022-07-15T03:45:20;94650.63;;;15.55;100.00
10946;BME280;5525;42.648;23.368;2022-07-15T03:47:47;94653.94;;;15.64;100.00
10946;BME280;5525;42.648;23.368;2022-07-15T03:50:13;94692.75;;;15.95;98.94
10946;BME280;5525;42.648;23.368;2022-07-15T03:52:40;94676.50;;;15.99;97.93
10946;BME280;5525;42.648;23.368;2022-07-15T03:55:08;94685.25;;;16.08;97.85
10946;BME280;5525;42.648;23.368;2022-07-15T03:57:38;94690.03;;;16.33;97.02
10946;BME280;5525;42.648;23.368;2022-07-15T04:00:06;94679.44;;;16.09;98.15
10946;BME280;5525;42.648;23.368;2022-07-15T04:02:33;94698.94;;;16.30;97.74
10946;BME280;5525;42.648;23.368;2022-07-15T04:05:00;94661.53;;;16.46;93.87
10946;BME280;5525;42.648;23.368;2022-07-15T04:07:27;94699.97;;;17.47;89.62
10946;BME280;5525;42.648;23.368;2022-07-15T04:09:54;94703.09;;;18.57;81.56
10946;BME280;5525;42.648;23.368;2022-07-15T04:12:21;94661.56;;;18.81;76.81
10946;BME280;5525;42.648;23.368;2022-07-15T04:14:49;94706.16;;;19.65;71.86
10946;BME280;5525;42.648;23.368;2022-07-15T04:17:16;94661.38;;;20.05;66.91
10946;BME280;5525;42.648;23.368;2022-07-15T04:19:43;94688.91;;;21.19;59.97
10946;BME280;5525;42.648;23.368;2022-07-15T04:22:10;94666.16;;;21.67;56.48
10946;BME280;5525;42.648;23.368;2022-07-15T04:24:37;94688.94;;;21.96;55.63
10946;BME280;5525;42.648;23.368;2022-07-15T04:27:04;94703.84;;;22.02;55.41
10946;BME280;5525;42.648;23.368;2022-07-15T04:29:31;94689.50;;;22.81;52.28
10946;BME280;5525;42.648;23.368;2022-07-15T04:31:59;94672.34;;;23.21;50.06
10946;BME280;5525;42.648;23.368;2022-07-15T04:34:28;94705.06;;;24.21;47.51
10946;BME280;5525;42.648;23.368;2022-07-15T04:36:54;94718.88;;;24.21;46.63
10946;BME280;5525;42.648;23.368;2022-07-15T04:39:21;94703.88;;;24.59;45.28
10946;BME280;5525;42.648;23.368;2022-07-15T04:41:48;94715.41;;;25.75;41.92
10946;BME280;5525;42.648;23.368;2022-07-15T04:44:17;94702.50;;;26.37;39.88
10946;BME280;5525;42.648;23.368;2022-07-15T04:46:44;94723.44;;;27.20;37.91
10946;BME280;5525;42.648;23.368;2022-07-15T04:49:12;94720.75;;;27.17;37.89
10946;BME280;5525;42.648;23.368;2022-07-15T04:51:56;94717.59;;;27.70;37.05
10946;BME280;5525;42.648;23.368;2022-07-15T04:54:23;94718.88;;;28.01;36.88
10946;BME280;5525;42.648;23.368;2022-07-15T04:56:50;94723.56;;;28.04;36.70
10946;BME280;5525;42.648;23.368;2022-07-15T04:59:17;94728.13;;;27.78;37.32
10946;BME280;5525;42.648;23.368;2022-07-15T05:01:44;94725.13;;;27.69;37.95
10946;BME280;5525;42.648;23.368;2022-07-15T05:04:12;94731.88;;;27.52;38.30
10946;BME280;5525;42.648;23.368;2022-07-15T05:06:39;94735.91;;;27.83;38.17
10946;BME280;5525;42.648;23.368;2022-07-15T05:09:06;94719.84;;;29.00;35.79
10946;BME280;5525;42.648;23.368;2022-07-15T05:11:33;94722.19;;;29.01;35.59
10946;BME280;5525;42.648;23.368;2022-07-15T05:14:00;94711.06;;;29.30;34.23
10946;BME280;5525;42.648;23.368;2022-07-15T05:16:27;94697.06;;;29.05;34.20
10946;BME280;5525;42.648;23.368;2022-07-15T05:18:55;94704.44;;;29.65;33.96
10946;BME280;5525;42.648;23.368;2022-07-15T05:21:24;94726.97;;;29.29;34.27
10946;BME280;5525;42.648;23.368;2022-07-15T05:23:51;94728.25;;;29.79;34.13
10946;BME280;5525;42.648;23.368;2022-07-15T05:26:18;94721.63;;;30.94;31.61
10946;BME280;5525;42.648;23.368;2022-07-15T05:28:45;94726.56;;;31.12;31.14
10946;BME280;5525;42.648;23.368;2022-07-15T05:31:12;94734.91;;;32.65;28.58
10946;BME280;5525;42.648;23.368;2022-07-15T05:33:39;94731.16;;;32.01;29.88
10946;BME280;5525;42.648;23.368;2022-07-15T05:36:10;94715.88;;;31.10;31.37
10946;BME280;5525;42.648;23.368;2022-07-15T05:38:39;94739.00;;;33.00;28.26
10946;BME280;5525;42.648;23.368;2022-07-15T05:41:06;94730.63;;;32.24;29.04
10946;BME280;5525;42.648;23.368;2022-07-15T05:43:33;94724.56;;;33.97;26.72
10946;BME280;5525;42.648;23.368;2022-07-15T05:45:59;94726.69;;;33.61;26.96
10946;BME280;5525;42.648;23.368;2022-07-15T05:48:26;94705.28;;;32.86;28.12
10946;BME280;5525;42.648;23.368;2022-07-15T05:50:53;94702.88;;;32.39;28.28
10946;BME280;5525;42.648;23.368;2022-07-15T05:53:20;94714.81;;;33.84;25.78
10946;BME280;5525;42.648;23.368;2022-07-15T05:55:49;94738.63;;;35.62;23.56
10946;BME280;5525;42.648;23.368;2022-07-15T05:58:17;94739.19;;;37.14;22.26
10946;BME280;5525;42.648;23.368;2022-07-15T06:00:44;94715.09;;;37.59;21.23
10946;BME280;5525;42.648;23.368;2022-07-15T06:03:11;94742.50;;;39.19;20.24
10946;BME280;5525;42.648;23.368;2022-07-15T06:05:38;94729.41;;;39.16;19.77
10946;BME280;5525;42.648;23.368;2022-07-15T06:08:05;94727.59;;;37.52;21.47
10946;BME280;5525;42.648;23.368;2022-07-15T06:10:33;94738.59;;;37.70;21.49
10946;BME280;5525;42.648;23.368;2022-07-15T06:13:01;94738.72;;;38.49;20.98
10946;BME280;5525;42.648;23.368;2022-07-15T06:15:28;94736.31;;;39.15;19.73
10946;BME280;5525;42.648;23.368;2022-07-15T06:17:55;94732.66;;;38.98;19.89
10946;BME280;5525;42.648;23.368;2022-07-15T06:20:22;94752.13;;;39.49;19.03
10946;BME280;5525;42.648;23.368;2022-07-15T06:22:49;94755.97;;;39.46;19.23
10946;BME280;5525;42.648;23.368;2022-07-15T06:25:16;94752.13;;;41.26;17.88
10946;BME280;5525;42.648;23.368;2022-07-15T06:27:43;94756.00;;;41.86;17.16
10946;BME280;5525;42.648;23.368;2022-07-15T06:30:12;94756.19;;;42.34;17.13
10946;BME280;5525;42.648;23.368;2022-07-15T06:32:39;94757.16;;;42.42;16.82
10946;BME280;5525;42.648;23.368;2022-07-15T06:35:07;94757.63;;;41.70;17.19
10946;BME280;5525;42.648;23.368;2022-07-15T06:37:34;94751.75;;;41.62;17.48
10946;BME280;5525;42.648;23.368;2022-07-15T06:40:01;94747.53;;;38.99;19.35
10946;BME280;5525;42.648;23.368;2022-07-15T06:42:28;94716.78;;;40.31;18.04
10946;BME280;5525;42.648;23.368;2022-07-15T06:44:55;94739.88;;;41.64;16.99
10946;BME280;5525;42.648;23.368;2022-07-15T06:47:24;94749.22;;;42.29;16.65
10946;BME280;5525;42.648;23.368;2022-07-15T06:49:51;94750.91;;;41.05;17.96
10946;BME280;5525;42.648;23.368;2022-07-15T06:52:19;94725.66;;;39.52;19.14
10946;BME280;5525;42.648;23.368;2022-07-15T06:54:46;94685.69;;;39.01;19.60
10946;BME280;5525;42.648;23.368;2022-07-15T06:57:13;94741.81;;;39.41;19.56
10946;BME280;5525;42.648;23.368;2022-07-15T06:59:42;94733.41;;;39.52;19.48
10946;BME280;5525;42.648;23.368;2022-07-15T07:02:09;94736.81;;;40.77;19.22
10946;BME280;5525;42.648;23.368;2022-07-15T07:04:37;94717.41;;;41.71;17.77
10946;BME280;5525;42.648;23.368;2022-07-15T07:07:04;94719.22;;;41.06;18.42
10946;BME280;5525;42.648;23.368;2022-07-15T07:09:31;94734.31;;;42.23;17.73
10946;BME280;5525;42.648;23.368;2022-07-15T07:11:58;94706.19;;;42.55;17.03
10946;BME280;5525;42.648;23.368;2022-07-15T07:14:25;94715.47;;;42.26;17.62
10946;BME280;5525;42.648;23.368;2022-07-15T07:16:52;94727.75;;;43.60;16.46
10946;BME280;5525;42.648;23.368;2022-07-15T07:19:18;94695.84;;;43.05;16.52
10946;BME280;5525;42.648;23.368;2022-07-15T07:21:47;94748.56;;;44.23;15.89
10946;BME280;5525;42.648;23.368;2022-07-15T07:24:14;94741.50;;;44.11;15.81
10946;BME280;5525;42.648;23.368;2022-07-15T07:26:41;94738.84;;;44.32;16.06
10946;BME280;5525;42.648;23.368;2022-07-15T07:29:08;94741.94;;;44.65;15.97
10946;BME280;5525;42.648;23.368;2022-07-15T07:31:35;94704.63;;;44.50;15.89
10946;BME280;5525;42.648;23.368;2022-07-15T07:34:02;94735.53;;;45.56;15.16
10946;BME280;5525;42.648;23.368;2022-07-15T07:36:29;94735.19;;;46.06;14.51
10946;BME280;5525;42.648;23.368;2022-07-15T07:38:58;94701.84;;;46.84;13.88
10946;BME280;5525;42.648;23.368;2022-07-15T07:41:26;94744.19;;;47.13;13.50
10946;BME280;5525;42.648;23.368;2022-07-15T07:43:53;94736.84;;;46.02;14.20
10946;BME280;5525;42.648;23.368;2022-07-15T07:46:20;94714.94;;;46.51;13.59
10946;BME280;5525;42.648;23.368;2022-07-15T07:48:47;94730.38;;;46.76;13.38
10946;BME280;5525;42.648;23.368;2022-07-15T07:51:14;94720.94;;;45.34;14.02
10946;BME280;5525;42.648;23.368;2022-07-15T07:53:41;94726.25;;;46.44;13.44
10946;BME280;5525;42.648;23.368;2022-07-15T07:56:10;94703.91;;;46.55;13.23
10946;BME280;5525;42.648;23.368;2022-07-15T07:58:37;94733.16;;;48.32;12.58
10946;BME280;5525;42.648;23.368;2022-07-15T08:01:05;94727.72;;;47.27;13.09
10946;BME280;5525;42.648;23.368;2022-07-15T08:03:32;94695.81;;;48.02;12.15
10946;BME280;5525;42.648;23.368;2022-07-15T08:05:59;94729.75;;;46.70;13.59
10946;BME280;5525;42.648;23.368;2022-07-15T08:08:26;94727.41;;;45.34;14.08
10946;BME280;5525;42.648;23.368;2022-07-15T08:10:55;94716.69;;;44.25;14.61
10946;BME280;5525;42.648;23.368;2022-07-15T08:13:25;94706.53;;;44.29;14.91
10946;BME280;5525;42.648;23.368;2022-07-15T08:15:53;94706.56;;;44.74;14.60
10946;BME280;5525;42.648;23.368;2022-07-15T08:18:21;94684.28;;;43.41;15.46
10946;BME280;5525;42.648;23.368;2022-07-15T08:20:49;94711.09;;;44.51;15.01
10946;BME280;5525;42.648;23.368;2022-07-15T08:23:16;94713.94;;;46.28;13.75
10946;BME280;5525;42.648;23.368;2022-07-15T08:25:47;94711.75;;;47.75;12.74
10946;BME280;5525;42.648;23.368;2022-07-15T08:28:14;94713.03;;;47.58;12.56
10946;BME280;5525;42.648;23.368;2022-07-15T08:30:45;94717.28;;;47.37;12.37
10946;BME280;5525;42.648;23.368;2022-07-15T08:33:13;94706.03;;;48.40;11.73
10946;BME280;5525;42.648;23.368;2022-07-15T08:35:40;94701.72;;;45.60;13.41
10946;BME280;5525;42.648;23.368;2022-07-15T08:38:08;94710.78;;;46.60;13.10
10946;BME280;5525;42.648;23.368;2022-07-15T08:40:37;94715.78;;;47.43;12.47
10946;BME280;5525;42.648;23.368;2022-07-15T08:43:08;94709.66;;;49.24;11.36
10946;BME280;5525;42.648;23.368;2022-07-15T08:45:37;94696.25;;;45.49;13.89
10946;BME280;5525;42.648;23.368;2022-07-15T08:48:07;94674.63;;;46.90;13.05
10946;BME280;5525;42.648;23.368;2022-07-15T08:50:35;94695.53;;;47.34;12.75
10946;BME280;5525;42.648;23.368;2022-07-15T08:53:03;94698.50;;;48.07;12.62
10946;BME280;5525;42.648;23.368;2022-07-15T08:55:31;94674.94;;;49.59;11.50
10946;BME280;5525;42.648;23.368;2022-07-15T08:58:00;94695.19;;;49.61;11.05
10946;BME280;5525;42.648;23.368;2022-07-15T09:00:27;94687.91;;;48.68;10.76
10946;BME280;5525;42.648;23.368;2022-07-15T09:02:58;94691.97;;;46.44;12.57
10946;BME280;5525;42.648;23.368;2022-07-15T09:05:29;94690.66;;;46.65;12.61
10946;BME280;5525;42.648;23.368;2022-07-15T09:08:00;94675.25;;;47.24;12.77
10946;BME280;5525;42.648;23.368;2022-07-15T09:10:48;94645.25;;;48.12;11.76
10946;BME280;5525;42.648;23.368;2022-07-15T09:13:27;94633.63;;;48.47;11.49
10946;BME280;5525;42.648;23.368;2022-07-15T09:15:57;94694.56;;;49.85;10.40
10946;BME280;5525;42.648;23.368;2022-07-15T09:18:26;94680.69;;;50.31;9.90
10946;BME280;5525;42.648;23.368;2022-07-15T09:20:56;94686.31;;;50.21;10.42
10946;BME280;5525;42.648;23.368;2022-07-15T09:23:26;94681.72;;;49.39;11.32
10946;BME280;5525;42.648;23.368;2022-07-15T09:28:47;94656.75;;;48.72;11.18
10946;BME280;5525;42.648;23.368;2022-07-15T09:31:27;94671.84;;;48.42;11.67
10946;BME280;5525;42.648;23.368;2022-07-15T09:34:11;94671.56;;;49.31;10.66
10946;BME280;5525;42.648;23.368;2022-07-15T09:36:42;94683.94;;;50.35;10.06
10946;BME280;5525;42.648;23.368;2022-07-15T09:39:10;94683.41;;;50.53;10.35
10946;BME280;5525;42.648;23.368;2022-07-15T09:41:38;94680.44;;;50.44;10.04
10946;BME280;5525;42.648;23.368;2022-07-15T09:44:07;94669.03;;;46.57;11.82
10946;BME280;5525;42.648;23.368;2022-07-15T09:46:44;94634.28;;;47.29;11.11
10946;BME280;5525;42.648;23.368;2022-07-15T09:49:14;94665.25;;;47.46;11.46
10946;BME280;5525;42.648;23.368;2022-07-15T09:51:47;94663.94;;;45.08;12.41
10946;BME280;5525;42.648;23.368;2022-07-15T09:54:14;94663.81;;;46.06;12.17
10946;BME280;5525;42.648;23.368;2022-07-15T09:56:42;94643.38;;;46.64;11.55
10946;BME280;5525;42.648;23.368;2022-07-15T09:59:10;94617.47;;;45.46;12.39
10946;BME280;5525;42.648;23.368;2022-07-15T10:01:37;94654.03;;;47.20;11.93
10946;BME280;5525;42.648;23.368;2022-07-15T10:04:06;94627.97;;;46.95;11.23
10946;BME280;5525;42.648;23.368;2022-07-15T10:06:33;94657.06;;;48.01;10.76
10946;BME280;5525;42.648;23.368;2022-07-15T10:09:05;94655.81;;;48.62;10.47
10946;BME280;5525;42.648;23.368;2022-07-15T10:11:36;94644.13;;;48.67;10.77
10946;BME280;5525;42.648;23.368;2022-07-15T10:14:29;94651.41;;;47.22;11.67
10946;BME280;5525;42.648;23.368;2022-07-15T10:20:39;94648.84;;;46.34;12.36
10946;BME280;5525;42.648;23.368;2022-07-15T10:23:14;94654.38;;;44.92;12.92
10946;BME280;5525;42.648;23.368;2022-07-15T10:26:03;94645.44;;;46.56;12.01
10946;BME280;5525;42.648;23.368;2022-07-15T10:28:48;94643.72;;;45.32;12.77
10946;BME280;5525;42.648;23.368;2022-07-15T10:31:18;94635.03;;;44.46;13.03
10946;BME280;5525;42.648;23.368;2022-07-15T10:34:20;94648.78;;;46.27;12.59
10946;BME280;5525;42.648;23.368;2022-07-15T10:36:54;94637.91;;;46.74;12.04
10946;BME280;5525;42.648;23.368;2022-07-15T10:39:26;94629.44;;;44.27;13.07
10946;BME280;5525;42.648;23.368;2022-07-15T10:41:57;94625.75;;;44.45;13.11
10946;BME280;5525;42.648;23.368;2022-07-15T10:44:26;94631.91;;;44.89;13.14
10946;BME280;5525;42.648;23.368;2022-07-15T10:47:19;94624.66;;;44.17;13.19
10946;BME280;5525;42.648;23.368;2022-07-15T10:49:47;94607.44;;;44.54;12.99
10946;BME280;5525;42.648;23.368;2022-07-15T10:52:15;94573.97;;;44.02;13.54
10946;BME280;5525;42.648;23.368;2022-07-15T10:54:47;94613.06;;;44.86;13.24
10946;BME280;5525;42.648;23.368;2022-07-15T10:57:18;94614.81;;;45.15;12.55
10946;BME280;5525;42.648;23.368;2022-07-15T10:59:54;94620.06;;;46.81;11.76
10946;BME280;5525;42.648;23.368;2022-07-15T11:02:23;94616.03;;;47.47;11.36
10946;BME280;5525;42.648;23.368;2022-07-15T11:04:51;94621.03;;;47.19;11.10
10946;BME280;5525;42.648;23.368;2022-07-15T11:07:25;94620.09;;;47.16;11.09
10946;BME280;5525;42.648;23.368;2022-07-15T11:09:55;94616.84;;;46.56;11.26
10946;BME280;5525;42.648;23.368;2022-07-15T11:12:54;94611.41;;;46.45;11.57
10946;BME280;5525;42.648;23.368;2022-07-15T11:15:12;94589.41;;;46.53;11.76
10946;BME280;5525;42.648;23.368;2022-07-15T11:17:43;94601.88;;;46.71;11.54
10946;BME280;5525;42.648;23.368;2022-07-15T11:20:13;94590.75;;;45.23;11.43
10946;BME280;5525;42.648;23.368;2022-07-15T11:22:44;94587.59;;;44.61;11.02
10946;BME280;5525;42.648;23.368;2022-07-15T11:25:18;94596.28;;;43.67;12.01
10946;BME280;5525;42.648;23.368;2022-07-15T11:28:04;94535.41;;;43.38;11.48
10946;BME280;5525;42.648;23.368;2022-07-15T11:30:34;94590.13;;;42.64;11.96
10946;BME280;5525;42.648;23.368;2022-07-15T11:33:05;94584.06;;;42.55;12.60
10946;BME280;5525;42.648;23.368;2022-07-15T11:35:43;94585.31;;;42.59;12.60
10946;BME280;5525;42.648;23.368;2022-07-15T11:38:14;94556.50;;;42.50;12.61
10946;BME280;5525;42.648;23.368;2022-07-15T11:40:47;94528.53;;;42.35;12.81
10946;BME280;5525;42.648;23.368;2022-07-15T11:43:34;94575.97;;;40.54;14.50
10946;BME280;5525;42.648;23.368;2022-07-15T11:46:18;94571.69;;;40.14;15.62
10946;BME280;5525;42.648;23.368;2022-07-15T11:48:50;94560.72;;;39.61;15.52
10946;BME280;5525;42.648;23.368;2022-07-15T11:51:25;94557.34;;;38.48;16.05
10946;BME280;5525;42.648;23.368;2022-07-15T11:53:54;94546.72;;;36.71;17.38
10946;BME280;5525;42.648;23.368;2022-07-15T11:56:24;94545.97;;;35.76;19.06
10946;BME280;5525;42.648;23.368;2022-07-15T11:58:59;94550.31;;;35.42;18.80
10946;BME280;5525;42.648;23.368;2022-07-15T12:01:27;94552.34;;;35.27;19.37
10946;BME280;5525;42.648;23.368;2022-07-15T12:04:06;94535.50;;;35.42;19.78
10946;BME280;5525;42.648;23.368;2022-07-15T12:06:42;94516.91;;;34.72;20.11
10946;BME280;5525;42.648;23.368;2022-07-15T12:09:14;94517.69;;;33.96;21.49
10946;BME280;5525;42.648;23.368;2022-07-15T12:11:41;94545.97;;;33.74;21.12
10946;BME280;5525;42.648;23.368;2022-07-15T12:14:11;94534.09;;;33.56;21.37
10946;BME280;5525;42.648;23.368;2022-07-15T12:16:45;94477.13;;;32.85;21.48
10946;BME280;5525;42.648;23.368;2022-07-15T12:19:16;94537.09;;;33.02;22.46
10946;BME280;5525;42.648;23.368;2022-07-15T12:21:47;94473.97;;;32.32;22.07
10946;BME280;5525;42.648;23.368;2022-07-15T12:24:15;94528.16;;;32.34;22.43
10946;BME280;5525;42.648;23.368;2022-07-15T12:26:58;94537.13;;;32.84;22.34
10946;BME280;5525;42.648;23.368;2022-07-15T12:29:29;94525.66;;;32.63;22.50
10946;BME280;5525;42.648;23.368;2022-07-15T12:32:00;94485.28;;;32.55;23.77
10946;BME280;5525;42.648;23.368;2022-07-15T12:34:51;94532.50;;;32.35;22.62
10946;BME280;5525;42.648;23.368;2022-07-15T12:37:20;94515.13;;;32.49;22.91
10946;BME280;5525;42.648;23.368;2022-07-15T12:39:58;94495.06;;;32.69;21.62
10946;BME280;5525;42.648;23.368;2022-07-15T12:42:28;94527.47;;;32.85;22.35
10946;BME280;5525;42.648;23.368;2022-07-15T12:45:08;94524.41;;;32.64;22.17
10946;BME280;5525;42.648;23.368;2022-07-15T12:47:36;94529.38;;;32.15;22.62
10946;BME280;5525;42.648;23.368;2022-07-15T12:50:05;94519.47;;;31.87;22.80
10946;BME280;5525;42.648;23.368;2022-07-15T12:52:35;94534.72;;;31.56;23.32
10946;BME280;5525;42.648;23.368;2022-07-15T12:55:14;94522.41;;;32.02;22.83
10946;BME280;5525;42.648;23.368;2022-07-15T12:57:44;94526.31;;;32.40;22.61
10946;BME280;5525;42.648;23.368;2022-07-15T13:00:16;94496.63;;;32.25;22.87
10946;BME280;5525;42.648;23.368;2022-07-15T13:03:03;94521.03;;;32.33;23.05
10946;BME280;5525;42.648;23.368;2022-07-15T13:05:34;94489.34;;;32.09;23.34
10946;BME280;5525;42.648;23.368;2022-07-15T13:08:04;94522.25;;;32.41;22.73
10946;BME280;5525;42.648;23.368;2022-07-15T13:10:31;94516.34;;;32.57;23.02
10946;BME280;5525;42.648;23.368;2022-07-15T13:12:59;94518.22;;;32.15;23.27
10946;BME280;5525;42.648;23.368;2022-07-15T13:15:28;94520.25;;;32.15;23.19